ISR044 LLER-LLBG
Flight info
| Callsign | ISR044 |
|---|---|
| Flight time | 0h 35m |
| Altitude | 18000 |
| Route | NURIT J10 AMMIT |
| Aircraft | A320/M-SDE3FGHIRWY/LB1 |
Departure
| Time | 2026-05-05 18:32 |
|---|---|
| Airport | Ramon International Airport (LLER) |
Arrival
| Time | 2026-05-05 19:07 |
|---|---|
| Airport | Ben Gurion International Airport (LLBG) |
| Time | Latitude | Longitude | Altitude | Speed | Heading |
|---|---|---|---|---|---|
| 2026-05-05 17:49 | 29.72489 | 35.00793 | 298 ft | 0 kts | 284° |
| 2026-05-05 18:25 | 29.72489 | 35.00796 | 298 ft | 2 kts | 284° |
| 2026-05-05 18:25 | 29.72488 | 35.00801 | 302 ft | 3 kts | 284° |
| 2026-05-05 18:25 | 29.72478 | 35.00838 | 299 ft | 3 kts | 292° |
| 2026-05-05 18:25 | 29.72469 | 35.00859 | 298 ft | 3 kts | 305° |
| 2026-05-05 18:26 | 29.72457 | 35.00875 | 301 ft | 3 kts | 338° |
| 2026-05-05 18:26 | 29.72446 | 35.00878 | 299 ft | 0 kts | 7° |
| 2026-05-05 18:29 | 29.72448 | 35.00880 | 299 ft | 1 kts | 21° |
| 2026-05-05 18:29 | 29.72440 | 35.00905 | 298 ft | 5 kts | 116° |
| 2026-05-05 18:29 | 29.72420 | 35.00952 | 299 ft | 8 kts | 112° |
| 2026-05-05 18:29 | 29.72403 | 35.01024 | 299 ft | 10 kts | 104° |
| 2026-05-05 18:30 | 29.72357 | 35.01083 | 298 ft | 11 kts | 167° |
| 2026-05-05 18:30 | 29.72273 | 35.01064 | 299 ft | 13 kts | 189° |
| 2026-05-05 18:30 | 29.72221 | 35.01125 | 300 ft | 12 kts | 108° |
| 2026-05-05 18:30 | 29.72204 | 35.01223 | 299 ft | 10 kts | 101° |
| 2026-05-05 18:31 | 29.72230 | 35.01279 | 298 ft | 8 kts | 12° |
| 2026-05-05 18:31 | 29.72240 | 35.01282 | 298 ft | 0 kts | 11° |
| 2026-05-05 18:31 | 29.72247 | 35.01283 | 298 ft | 4 kts | 11° |
| 2026-05-05 18:31 | 29.72407 | 35.01325 | 298 ft | 57 kts | 14° |
| 2026-05-05 18:32 | 29.73011 | 35.01492 | 299 ft | 118 kts | 13° |
| 2026-05-05 18:32 | 29.73967 | 35.01757 | 362 ft | 158 kts | 13° |
| 2026-05-05 18:32 | 29.75028 | 35.02045 | 979 ft | 155 kts | 8° |
| 2026-05-05 18:32 | 29.76090 | 35.02209 | 1585 ft | 154 kts | 5° |
| 2026-05-05 18:33 | 29.77163 | 35.02349 | 2091 ft | 161 kts | 5° |
| 2026-05-05 18:33 | 29.78361 | 35.02504 | 2360 ft | 184 kts | 5° |
| 2026-05-05 18:33 | 29.79716 | 35.02680 | 2642 ft | 208 kts | 5° |
| 2026-05-05 18:33 | 29.81241 | 35.02883 | 3017 ft | 233 kts | 5° |
| 2026-05-05 18:34 | 29.82934 | 35.03109 | 3505 ft | 255 kts | 6° |
| 2026-05-05 18:34 | 29.84727 | 35.03357 | 4310 ft | 263 kts | 6° |
| 2026-05-05 18:34 | 29.86563 | 35.03616 | 5049 ft | 267 kts | 6° |
| 2026-05-05 18:34 | 29.88455 | 35.03885 | 5639 ft | 286 kts | 6° |
| 2026-05-05 18:35 | 29.90506 | 35.04176 | 6034 ft | 308 kts | 6° |
| 2026-05-05 18:35 | 29.92682 | 35.04490 | 6715 ft | 316 kts | 6° |
| 2026-05-05 18:35 | 29.94882 | 35.04812 | 7490 ft | 321 kts | 6° |
| 2026-05-05 18:35 | 29.97111 | 35.05142 | 8279 ft | 324 kts | 6° |
| 2026-05-05 18:36 | 29.99330 | 35.05470 | 9030 ft | 328 kts | 6° |
| 2026-05-05 18:36 | 30.01609 | 35.05805 | 9779 ft | 332 kts | 6° |
| 2026-05-05 18:36 | 30.03912 | 35.06142 | 10524 ft | 336 kts | 6° |
| 2026-05-05 18:36 | 30.06245 | 35.06480 | 11238 ft | 340 kts | 6° |
| 2026-05-05 18:37 | 30.08548 | 35.06855 | 11761 ft | 347 kts | 5° |
| 2026-05-05 18:37 | 30.10956 | 35.07321 | 12345 ft | 354 kts | 6° |
| 2026-05-05 18:37 | 30.13395 | 35.07837 | 13002 ft | 359 kts | 7° |
| 2026-05-05 18:37 | 30.15873 | 35.08378 | 13664 ft | 364 kts | 7° |
| 2026-05-05 18:38 | 30.18375 | 35.08923 | 14272 ft | 368 kts | 6° |
| 2026-05-05 18:38 | 30.20909 | 35.09468 | 14852 ft | 372 kts | 6° |
| 2026-05-05 18:38 | 30.23463 | 35.10007 | 15426 ft | 376 kts | 5° |
| 2026-05-05 18:38 | 30.26030 | 35.10513 | 16013 ft | 379 kts | 4° |
| 2026-05-05 18:39 | 30.28645 | 35.11000 | 16625 ft | 381 kts | 4° |
| 2026-05-05 18:39 | 30.31276 | 35.11474 | 17219 ft | 384 kts | 3° |
| 2026-05-05 18:39 | 30.33935 | 35.11950 | 17774 ft | 389 kts | 3° |
| 2026-05-05 18:39 | 30.36615 | 35.12441 | 17955 ft | 391 kts | 3° |
| 2026-05-05 18:40 | 30.39331 | 35.12957 | 17997 ft | 398 kts | 4° |
| 2026-05-05 18:40 | 30.42074 | 35.13491 | 17990 ft | 400 kts | 4° |
| 2026-05-05 18:40 | 30.44832 | 35.14037 | 17990 ft | 401 kts | 4° |
| 2026-05-05 18:40 | 30.47570 | 35.14578 | 17996 ft | 401 kts | 4° |
| 2026-05-05 18:41 | 30.50322 | 35.15116 | 18006 ft | 401 kts | 4° |
| 2026-05-05 18:41 | 30.53063 | 35.15648 | 17995 ft | 401 kts | 4° |
| 2026-05-05 18:41 | 30.55858 | 35.16311 | 17995 ft | 405 kts | 11° |
| 2026-05-05 18:41 | 30.58469 | 35.17436 | 17998 ft | 410 kts | 18° |
| 2026-05-05 18:42 | 30.61101 | 35.18727 | 17994 ft | 410 kts | 18° |
| 2026-05-05 18:42 | 30.63730 | 35.20022 | 17995 ft | 411 kts | 18° |
| 2026-05-05 18:42 | 30.66367 | 35.21320 | 17997 ft | 411 kts | 18° |
| 2026-05-05 18:42 | 30.68997 | 35.22614 | 18002 ft | 411 kts | 18° |
| 2026-05-05 18:43 | 30.71631 | 35.23914 | 18005 ft | 411 kts | 18° |
| 2026-05-05 18:43 | 30.74271 | 35.25218 | 17998 ft | 412 kts | 18° |
| 2026-05-05 18:43 | 30.76906 | 35.26516 | 18004 ft | 412 kts | 18° |
| 2026-05-05 18:43 | 30.79547 | 35.27815 | 18009 ft | 412 kts | 18° |
| 2026-05-05 18:44 | 30.82161 | 35.29102 | 18009 ft | 412 kts | 18° |
| 2026-05-05 18:44 | 30.84851 | 35.30428 | 18011 ft | 412 kts | 18° |
| 2026-05-05 18:44 | 30.87445 | 35.31706 | 18014 ft | 411 kts | 18° |
| 2026-05-05 18:44 | 30.90083 | 35.33006 | 18035 ft | 412 kts | 18° |
| 2026-05-05 18:45 | 30.92729 | 35.34286 | 18030 ft | 410 kts | 15° |
| 2026-05-05 18:45 | 30.95458 | 35.35164 | 18033 ft | 404 kts | 5° |
| 2026-05-05 18:45 | 30.98264 | 35.35543 | 18019 ft | 400 kts | 359° |
| 2026-05-05 18:45 | 31.01006 | 35.35819 | 18019 ft | 400 kts | 359° |
| 2026-05-05 18:46 | 31.03741 | 35.36096 | 18020 ft | 400 kts | 359° |
| 2026-05-05 18:46 | 31.06538 | 35.36381 | 18019 ft | 400 kts | 359° |
| 2026-05-05 18:46 | 31.09298 | 35.36663 | 17975 ft | 398 kts | 359° |
| 2026-05-05 18:46 | 31.12026 | 35.36946 | 17725 ft | 387 kts | 360° |
| 2026-05-05 18:47 | 31.14670 | 35.37224 | 17466 ft | 376 kts | 359° |
| 2026-05-05 18:47 | 31.17245 | 35.37495 | 17203 ft | 367 kts | 359° |
| 2026-05-05 18:47 | 31.19744 | 35.37757 | 16954 ft | 361 kts | 359° |
| 2026-05-05 18:47 | 31.22230 | 35.38015 | 16702 ft | 358 kts | 359° |
| 2026-05-05 18:48 | 31.24704 | 35.38273 | 16439 ft | 354 kts | 359° |
| 2026-05-05 18:48 | 31.27146 | 35.38532 | 16025 ft | 351 kts | 360° |
| 2026-05-05 18:48 | 31.29573 | 35.38789 | 15575 ft | 350 kts | 360° |
| 2026-05-05 18:48 | 31.31991 | 35.39043 | 15122 ft | 348 kts | 360° |
| 2026-05-05 18:49 | 31.34396 | 35.39434 | 14710 ft | 349 kts | 6° |
| 2026-05-05 18:49 | 31.36773 | 35.39963 | 14269 ft | 348 kts | 6° |
| 2026-05-05 18:49 | 31.39147 | 35.40491 | 13805 ft | 347 kts | 6° |
| 2026-05-05 18:49 | 31.41518 | 35.41021 | 13306 ft | 346 kts | 6° |
| 2026-05-05 18:50 | 31.43862 | 35.41544 | 12853 ft | 343 kts | 6° |
| 2026-05-05 18:50 | 31.46204 | 35.42066 | 12397 ft | 341 kts | 6° |
| 2026-05-05 18:50 | 31.48526 | 35.42583 | 11951 ft | 339 kts | 7° |
| 2026-05-05 18:50 | 31.50834 | 35.43095 | 11507 ft | 337 kts | 7° |
| 2026-05-05 18:51 | 31.53134 | 35.43607 | 11063 ft | 335 kts | 7° |
| 2026-05-05 18:51 | 31.55419 | 35.44116 | 10620 ft | 334 kts | 7° |
| 2026-05-05 18:51 | 31.57698 | 35.44626 | 10274 ft | 330 kts | 7° |
| 2026-05-05 18:51 | 31.59909 | 35.45123 | 10146 ft | 318 kts | 7° |
| 2026-05-05 18:52 | 31.62046 | 35.45602 | 10027 ft | 307 kts | 7° |
| 2026-05-05 18:52 | 31.64114 | 35.46075 | 9864 ft | 299 kts | 8° |
| 2026-05-05 18:52 | 31.66133 | 35.46553 | 9735 ft | 296 kts | 8° |
| 2026-05-05 18:52 | 31.68145 | 35.47034 | 9604 ft | 295 kts | 8° |
| 2026-05-05 18:53 | 31.70156 | 35.47514 | 9470 ft | 294 kts | 8° |
| 2026-05-05 18:53 | 31.72138 | 35.47898 | 9339 ft | 290 kts | 357° |
| 2026-05-05 18:53 | 31.74100 | 35.47468 | 9205 ft | 282 kts | 333° |
| 2026-05-05 18:53 | 31.75814 | 35.46370 | 8958 ft | 279 kts | 326° |
| 2026-05-05 18:54 | 31.77388 | 35.45119 | 8703 ft | 275 kts | 318° |
| 2026-05-05 18:54 | 31.78818 | 35.43644 | 8444 ft | 273 kts | 315° |
| 2026-05-05 18:54 | 31.80232 | 35.42162 | 8190 ft | 272 kts | 317° |
| 2026-05-05 18:54 | 31.81695 | 35.40760 | 8055 ft | 272 kts | 319° |
| 2026-05-05 18:55 | 31.83176 | 35.39405 | 7926 ft | 266 kts | 320° |
| 2026-05-05 18:55 | 31.84627 | 35.38094 | 7796 ft | 262 kts | 320° |
| 2026-05-05 18:55 | 31.86064 | 35.36789 | 7677 ft | 261 kts | 320° |
| 2026-05-05 18:55 | 31.87494 | 35.35482 | 7541 ft | 260 kts | 320° |
| 2026-05-05 18:56 | 31.88917 | 35.34177 | 7426 ft | 259 kts | 319° |
| 2026-05-05 18:56 | 31.90336 | 35.32869 | 7302 ft | 258 kts | 319° |
| 2026-05-05 18:56 | 31.91749 | 35.31563 | 7177 ft | 258 kts | 320° |
| 2026-05-05 18:56 | 31.93162 | 35.30257 | 7056 ft | 258 kts | 319° |
| 2026-05-05 18:57 | 31.94567 | 35.28953 | 6939 ft | 257 kts | 319° |
| 2026-05-05 18:57 | 31.95968 | 35.27653 | 6816 ft | 256 kts | 319° |
| 2026-05-05 18:57 | 31.97366 | 35.26361 | 6694 ft | 255 kts | 319° |
| 2026-05-05 18:57 | 31.98760 | 35.25070 | 6577 ft | 254 kts | 319° |
| 2026-05-05 18:58 | 32.00130 | 35.23799 | 6463 ft | 252 kts | 318° |
| 2026-05-05 18:58 | 32.01498 | 35.22534 | 6332 ft | 249 kts | 318° |
| 2026-05-05 18:58 | 32.02847 | 35.21289 | 6200 ft | 243 kts | 318° |
| 2026-05-05 18:58 | 32.04158 | 35.20076 | 6070 ft | 236 kts | 318° |
| 2026-05-05 18:59 | 32.05424 | 35.18904 | 5940 ft | 228 kts | 318° |
| 2026-05-05 18:59 | 32.06659 | 35.17756 | 5812 ft | 224 kts | 317° |
| 2026-05-05 18:59 | 32.07859 | 35.16636 | 5689 ft | 216 kts | 317° |
| 2026-05-05 18:59 | 32.09031 | 35.15543 | 5561 ft | 211 kts | 317° |
| 2026-05-05 19:00 | 32.10179 | 35.14474 | 5431 ft | 210 kts | 317° |
| 2026-05-05 19:00 | 32.11324 | 35.13407 | 5306 ft | 209 kts | 317° |
| 2026-05-05 19:00 | 32.12450 | 35.12329 | 5183 ft | 206 kts | 312° |
| 2026-05-05 19:00 | 32.13363 | 35.11088 | 5056 ft | 196 kts | 306° |
| 2026-05-05 19:01 | 32.14212 | 35.09853 | 4839 ft | 194 kts | 306° |
| 2026-05-05 19:01 | 32.15062 | 35.08623 | 4656 ft | 189 kts | 306° |
| 2026-05-05 19:01 | 32.15861 | 35.07471 | 4612 ft | 178 kts | 307° |
| 2026-05-05 19:01 | 32.16635 | 35.06356 | 4510 ft | 174 kts | 306° |
| 2026-05-05 19:02 | 32.17393 | 35.05240 | 4408 ft | 174 kts | 301° |
| 2026-05-05 19:02 | 32.17811 | 35.03923 | 4341 ft | 172 kts | 276° |
| 2026-05-05 19:02 | 32.17694 | 35.02513 | 4153 ft | 176 kts | 253° |
| 2026-05-05 19:02 | 32.17062 | 35.01273 | 3907 ft | 178 kts | 237° |
| 2026-05-05 19:03 | 32.16324 | 35.00093 | 3613 ft | 179 kts | 238° |
| 2026-05-05 19:03 | 32.15523 | 34.98960 | 3302 ft | 184 kts | 223° |
| 2026-05-05 19:03 | 32.14412 | 34.98177 | 3047 ft | 187 kts | 213° |
| 2026-05-05 19:03 | 32.13277 | 34.97438 | 2739 ft | 184 kts | 212° |
| 2026-05-05 19:04 | 32.12207 | 34.96747 | 2484 ft | 173 kts | 212° |
| 2026-05-05 19:04 | 32.11175 | 34.96085 | 2224 ft | 163 kts | 212° |
| 2026-05-05 19:04 | 32.10210 | 34.95459 | 1993 ft | 154 kts | 212° |
| 2026-05-05 19:04 | 32.09290 | 34.94863 | 1805 ft | 149 kts | 212° |
| 2026-05-05 19:05 | 32.08393 | 34.94279 | 1609 ft | 146 kts | 212° |
| 2026-05-05 19:05 | 32.07502 | 34.93702 | 1430 ft | 146 kts | 212° |
| 2026-05-05 19:05 | 32.06616 | 34.93126 | 1230 ft | 145 kts | 212° |
| 2026-05-05 19:05 | 32.05734 | 34.92556 | 1042 ft | 145 kts | 212° |
| 2026-05-05 19:06 | 32.04855 | 34.91989 | 855 ft | 144 kts | 212° |
| 2026-05-05 19:06 | 32.03980 | 34.91422 | 675 ft | 143 kts | 212° |
| 2026-05-05 19:06 | 32.03113 | 34.90862 | 469 ft | 141 kts | 213° |
| 2026-05-05 19:06 | 32.02251 | 34.90307 | 266 ft | 141 kts | 213° |
| 2026-05-05 19:07 | 32.01397 | 34.89755 | 125 ft | 136 kts | 210° |
| 2026-05-05 19:07 | 32.00684 | 34.89293 | 118 ft | 90 kts | 208° |
| 2026-05-05 19:07 | 32.00349 | 34.89077 | 119 ft | 26 kts | 209° |
| 2026-05-05 19:07 | 32.00204 | 34.88949 | 117 ft | 26 kts | 231° |
| 2026-05-05 19:08 | 32.00125 | 34.88808 | 119 ft | 19 kts | 237° |
| 2026-05-05 19:08 | 32.00081 | 34.88712 | 119 ft | 13 kts | 256° |
| 2026-05-05 19:08 | 32.00109 | 34.88608 | 118 ft | 15 kts | 301° |
| 2026-05-05 19:08 | 32.00171 | 34.88496 | 119 ft | 18 kts | 303° |
| 2026-05-05 19:09 | 32.00241 | 34.88365 | 116 ft | 20 kts | 301° |
| 2026-05-05 19:09 | 32.00317 | 34.88217 | 116 ft | 22 kts | 301° |
| 2026-05-05 19:09 | 32.00395 | 34.88067 | 120 ft | 20 kts | 301° |
| 2026-05-05 19:09 | 32.00447 | 34.87960 | 116 ft | 13 kts | 292° |
| 2026-05-05 19:10 | 32.00397 | 34.87879 | 119 ft | 15 kts | 212° |
| 2026-05-05 19:10 | 32.00301 | 34.87815 | 118 ft | 17 kts | 209° |
| 2026-05-05 19:10 | 32.00207 | 34.87749 | 118 ft | 14 kts | 211° |
| 2026-05-05 19:10 | 32.00147 | 34.87776 | 119 ft | 9 kts | 116° |
| 2026-05-05 19:11 | 32.00136 | 34.87802 | 120 ft | 0 kts | 118° |